Fort Richardson, Alaska
Current Conditions -  °F | °C
As of 11:58 PM on Wednesday 17 Dec 2014 (Local Time) from PAED Reporting Station
Clear Clear  
Wind Chill: 17°   Ceiling: Unl
Heat Index: 17°   Visibility: 10mi
Dew Point: 15°   Wind: 2mph
Humidity: 93%   Direction: 150°SSE
Pressure: 29.59"   Gusts: NA
Location:  61.25°N, 149.69°W
Report Text: PAED 180858Z AUTO 15002KT 10SM CLR M08/M09 A2959 RMK AO2 SLP018 T10821092 400091089 52003
Loading
Personal Weather Stations






























Interactive Weather Map New forecast layout! Learn more

10-Day Weather Forecast

Advertisements
Track Severe Weather on mobile